General Aviation Weather

Text Reports

Enter one or more of the following location identifiers separated by a space:

Zip Code, Four-Character ICAO or Three-Character IATA airport codes.

METAR - Aviation Routine Weather Report
PFYU - Fort Yukon, Alaska
Updated at 8:36 AM GMT on June 30, 2015 (12:36 AM AKDT):
METAR PFYU 300836Z 00000KT 3SM CLR 14/10 A2989 RMK AO1
TAF - Terminal Area Forecast
PFYU - Fort Yukon, Alaska
Updated at 8:36 AM GMT on June 30, 2015 (12:36 AM AKDT):
No TAF is currently available for this location.
Decoded:
No decoded TAF is available.
PIREP - Pilot Weather Report
PFYU - Fort Yukon, Alaska
Updated at 8:36 AM GMT on June 30, 2015 (12:36 AM AKDT):
No PIREP is currently available for this location.
AIRMET - Airmens Meteorological Information
PFYU - Fort Yukon, Alaska
Updated at 8:36 AM GMT on June 30, 2015 (12:36 AM AKDT):
No AIRMET is currently available for this location.
SIGMET - Significant Meteorological Information
PFYU - Fort Yukon, Alaska
Updated at 8:36 AM GMT on June 30, 2015 (12:36 AM AKDT):
No SIGMET is currently available for this location.
NOTAM - Notice to Airmen
PFYU - Fort Yukon, Alaska
Updated at 8:36 AM GMT on June 30, 2015 (12:36 AM AKDT):
No NOTAM is currently available for this location.
Forecast Area
PFYU - Fort Yukon, Alaska
Updated at 8:36 AM GMT on June 30, 2015 (12:36 AM AKDT):
No NOTAM is currently available for this location.
Aviation Weather Maps